Time;durP1;ratioP1;P1;durP2;ratioP2;P2;SDS_P1;SDS_P2;PMS_P1;PMS_P2;Temp;Humidity;BMP_temperature;BMP_pressure;BME280_temperature;BME280_humidity;BME280_pressure;Samples;Min_cycle;Max_cycle;Signal;HPM_P1;HPM_P2
2021/11/14 00:02:23;;;;;;;4.63;1.50;;;;;;;26.19;32.39;96433.41;5046028;28;20028;-31
2021/11/14 00:04:49;;;;;;;3.03;1.40;;;;;;;26.19;32.41;96430.78;5048859;28;20028;-31
2021/11/14 00:07:15;;;;;;;4.15;2.00;;;;;;;26.19;32.32;96431.63;5063139;28;20563;-29
2021/11/14 00:09:40;;;;;;;3.33;1.67;;;;;;;26.20;32.28;96437.75;5051626;28;20360;-33
2021/11/14 00:12:06;;;;;;;2.65;1.50;;;;;;;26.19;32.29;96433.41;5049343;28;20028;-29
2021/11/14 00:14:31;;;;;;;2.63;1.40;;;;;;;26.19;32.36;96433.41;5046579;28;20408;-30
2021/11/14 00:16:57;;;;;;;3.38;1.42;;;;;;;26.19;32.48;96430.78;5047499;28;20067;-29
2021/11/14 00:19:22;;;;;;;2.90;1.73;;;;;;;26.20;32.47;96437.75;5048402;28;20039;-30
2021/11/14 00:21:48;;;;;;;3.28;1.27;;;;;;;26.19;32.23;96434.25;5049935;28;20279;-31
2021/11/14 00:24:13;;;;;;;2.25;1.42;;;;;;;26.18;32.44;96427.31;5046200;28;20089;-31
2021/11/14 00:26:40;;;;;;;3.05;1.40;;;;;;;26.19;32.22;96425.53;5044963;28;20036;-30
2021/11/14 00:29:05;;;;;;;2.75;1.40;;;;;;;26.18;32.31;96431.72;5046869;28;20033;-31
2021/11/14 00:31:31;;;;;;;2.35;1.45;;;;;;;26.18;32.29;96429.09;5053518;28;20515;-31
2021/11/14 00:33:56;;;;;;;2.47;1.50;;;;;;;26.18;32.37;96429.09;5044572;28;20489;-33
2021/11/14 00:36:23;;;;;;;2.95;1.70;;;;;;;26.19;32.39;96428.16;5046277;28;20040;-32
2021/11/14 00:38:50;;;;;;;2.90;1.13;;;;;;;26.18;32.36;96429.94;5044526;28;20595;-32
2021/11/14 00:41:15;;;;;;;2.78;1.52;;;;;;;26.17;32.51;96428.25;5043541;28;20020;-33
2021/11/14 00:43:41;;;;;;;3.10;1.42;;;;;;;26.17;32.34;96424.78;5045183;28;20555;-35
2021/11/14 00:46:07;;;;;;;2.85;1.20;;;;;;;26.17;32.28;96430.88;5044430;28;20467;-33
2021/11/14 00:48:32;;;;;;;2.33;1.42;;;;;;;26.17;32.45;96430.88;5049267;28;20025;-30
2021/11/14 00:51:02;;;;;;;2.45;1.40;;;;;;;26.18;32.31;96423.84;5061587;28;20082;-31
2021/11/14 00:53:27;;;;;;;2.85;1.52;;;;;;;26.18;32.30;96426.47;5049999;28;20500;-30
2021/11/14 00:55:53;;;;;;;2.28;1.45;;;;;;;26.17;32.42;96428.25;5055880;28;20035;-28
2021/11/14 00:58:18;;;;;;;2.30;1.30;;;;;;;26.18;32.37;96431.72;5042587;28;20029;-32
2021/11/14 01:00:43;;;;;;;2.13;1.15;;;;;;;26.17;32.30;96422.16;5042474;28;20039;-30
2021/11/14 01:03:09;;;;;;;2.40;1.30;;;;;;;26.18;32.41;96429.09;5047829;28;20037;-31
2021/11/14 01:05:35;;;;;;;2.30;1.40;;;;;;;26.17;32.43;96433.53;5027558;28;20500;-31
2021/11/14 01:08:01;;;;;;;7.65;1.60;;;;;;;26.18;32.41;96439.59;5030431;28;20100;-29
2021/11/14 01:10:29;;;;;;;2.13;1.50;;;;;;;26.17;32.41;96435.28;5027413;28;20039;-31
2021/11/14 01:12:54;;;;;;;2.92;1.60;;;;;;;26.16;32.37;96439.69;5034100;28;21127;-30
2021/11/14 01:15:20;;;;;;;5.07;1.52;;;;;;;26.16;32.32;96436.22;5029855;28;20036;-30
2021/11/14 01:17:46;;;;;;;2.40;1.38;;;;;;;26.17;32.48;96437.91;5029224;28;20025;-29
2021/11/14 01:20:14;;;;;;;1.85;1.40;;;;;;;26.16;32.37;96437.06;5029554;28;20087;-30
2021/11/14 01:22:40;;;;;;;2.05;1.20;;;;;;;26.15;32.39;96448.50;5040324;28;20029;-34
2021/11/14 01:25:05;;;;;;;2.25;1.42;;;;;;;26.16;32.41;96444.13;5059328;28;20044;-30
2021/11/14 01:27:32;;;;;;;1.85;1.17;;;;;;;26.16;32.30;96450.19;5049107;28;20094;-32
2021/11/14 01:29:57;;;;;;;2.42;1.08;;;;;;;26.16;32.27;96447.56;5047268;28;20020;-31
2021/11/14 01:32:23;;;;;;;2.38;1.30;;;;;;;26.16;32.26;96450.19;5044099;28;20025;-31
2021/11/14 01:34:48;;;;;;;1.80;1.20;;;;;;;26.17;32.48;96451.91;5050361;28;20287;-30
2021/11/14 01:37:13;;;;;;;1.73;1.20;;;;;;;26.17;32.29;96453.66;5048117;28;20081;-29
2021/11/14 01:39:39;;;;;;;2.35;1.27;;;;;;;26.16;32.42;96457.25;5049734;28;20032;-33
2021/11/14 01:42:05;;;;;;;4.68;1.63;;;;;;;26.15;32.32;96455.53;5050096;28;20025;-31
2021/11/14 01:44:30;;;;;;;3.40;1.40;;;;;;;26.16;32.41;96454.63;5046991;28;20094;-29
2021/11/14 01:46:55;;;;;;;2.38;1.20;;;;;;;26.16;32.31;96459.88;5050280;28;20037;-30
2021/11/14 01:49:21;;;;;;;2.22;1.50;;;;;;;26.15;32.52;96456.38;5053615;28;20032;-30
2021/11/14 01:51:46;;;;;;;3.85;1.35;;;;;;;26.14;32.38;96459.97;5050247;28;20043;-31
2021/11/14 01:54:12;;;;;;;2.15;1.50;;;;;;;26.15;32.39;96456.38;5050909;28;20029;-30
2021/11/14 01:56:37;;;;;;;2.40;1.15;;;;;;;26.15;32.36;96455.53;5052153;28;20037;-30
2021/11/14 01:59:03;;;;;;;2.13;1.55;;;;;;;26.15;32.51;96458.16;5049786;28;20036;-30
2021/11/14 02:01:32;;;;;;;1.65;0.98;;;;;;;26.15;32.36;96450.28;5048870;28;20047;-32
2021/11/14 02:04:01;;;;;;;1.70;1.30;;;;;;;26.15;32.34;96452.91;5063375;28;20485;-30
2021/11/14 02:06:27;;;;;;;2.03;1.33;;;;;;;26.14;32.42;96456.47;5048995;28;20502;-29
2021/11/14 02:08:52;;;;;;;3.42;1.63;;;;;;;26.13;32.27;96454.78;5052762;28;20033;-33
2021/11/14 02:11:18;;;;;;;2.17;1.17;;;;;;;26.14;32.32;96453.84;5046911;28;20033;-29
2021/11/14 02:13:44;;;;;;;1.90;1.20;;;;;;;26.14;32.43;96453.84;5050105;28;20039;-31
2021/11/14 02:16:10;;;;;;;2.28;1.23;;;;;;;26.15;32.29;96455.53;5046545;28;20540;-30
2021/11/14 02:18:35;;;;;;;2.33;1.35;;;;;;;26.14;32.30;96453.84;5046825;28;20067;-29
2021/11/14 02:21:01;;;;;;;1.98;1.40;;;;;;;26.14;32.22;96451.22;5064423;28;20044;-35
2021/11/14 02:23:26;;;;;;;2.17;1.45;;;;;;;26.14;32.45;96448.59;5054514;28;20025;-34
2021/11/14 02:25:52;;;;;;;1.42;1.15;;;;;;;26.13;32.31;96453.03;5048484;28;20071;-30
2021/11/14 02:28:19;;;;;;;2.38;1.42;;;;;;;26.13;32.45;96453.03;5044711;28;20039;-30
2021/11/14 02:30:46;;;;;;;2.25;1.20;;;;;;;26.13;32.41;96441.66;5050072;28;20036;-32
2021/11/14 02:33:11;;;;;;;2.05;1.30;;;;;;;26.15;32.45;96450.28;5051068;28;20037;-32
2021/11/14 02:35:37;;;;;;;2.20;1.50;;;;;;;26.14;32.36;96448.59;5050469;28;20035;-31
2021/11/14 02:38:03;;;;;;;2.03;1.13;;;;;;;26.14;32.29;96445.97;5042917;28;20530;-32
2021/11/14 02:40:28;;;;;;;1.60;1.35;;;;;;;26.14;32.34;96449.44;5044431;28;20381;-33
2021/11/14 02:42:53;;;;;;;1.60;1.20;;;;;;;26.13;32.23;96446.91;5047433;28;20040;-32
2021/11/14 02:45:21;;;;;;;3.30;1.25;;;;;;;26.13;32.22;96446.91;5046961;28;20957;-31
2021/11/14 02:47:47;;;;;;;1.42;1.30;;;;;;;26.14;32.38;96456.47;5063958;28;20063;-30
2021/11/14 02:50:12;;;;;;;3.33;1.50;;;;;;;26.13;32.27;96452.16;5049714;28;20024;-29
2021/11/14 02:52:38;;;;;;;2.67;1.20;;;;;;;26.12;32.49;96445.22;5048243;28;20037;-32
2021/11/14 02:55:04;;;;;;;2.13;1.38;;;;;;;26.13;32.46;96452.16;5049784;28;20028;-29
2021/11/14 02:57:30;;;;;;;1.10;0.95;;;;;;;26.13;32.27;96452.16;5047336;28;20040;-30
2021/11/14 02:59:55;;;;;;;2.13;1.50;;;;;;;26.12;32.35;96451.31;5048182;28;20047;-34
2021/11/14 03:02:21;;;;;;;1.02;0.90;;;;;;;26.12;32.36;96451.31;5063516;28;20685;-32
2021/11/14 03:04:46;;;;;;;1.23;1.10;;;;;;;26.13;32.52;96460.03;5048872;28;20138;-33
2021/11/14 03:07:12;;;;;;;2.22;1.10;;;;;;;26.12;32.32;96450.47;5042123;28;20029;-30
2021/11/14 03:09:38;;;;;;;2.55;0.93;;;;;;;26.12;32.29;96463.63;5044268;28;20055;-36
2021/11/14 03:12:04;;;;;;;1.42;1.10;;;;;;;26.10;32.37;96454.03;5047421;28;20101;-33
2021/11/14 03:14:29;;;;;;;1.33;1.20;;;;;;;26.10;32.39;96451.41;5050007;28;20032;-33
2021/11/14 03:16:55;;;;;;;1.52;1.20;;;;;;;26.12;32.43;96455.72;5049060;28;20660;-34
2021/11/14 03:19:20;;;;;;;1.20;1.10;;;;;;;26.10;32.25;96451.41;5049564;28;20107;-30
2021/11/14 03:21:48;;;;;;;3.42;1.25;;;;;;;26.10;32.44;96454.03;5046945;28;20025;-30
2021/11/14 03:24:13;;;;;;;1.55;1.10;;;;;;;26.10;32.33;96456.66;5050191;28;20036;-31
2021/11/14 03:26:39;;;;;;;2.10;1.35;;;;;;;26.11;32.42;96454.88;5062850;28;20037;-32
2021/11/14 03:29:04;;;;;;;1.45;1.17;;;;;;;26.11;32.39;96452.25;5046616;28;20028;-33
2021/11/14 03:31:30;;;;;;;1.38;1.10;;;;;;;26.10;32.35;96454.03;5050516;28;20028;-30
2021/11/14 03:33:57;;;;;;;1.40;1.02;;;;;;;26.12;32.33;96453.09;5048746;28;20672;-30
2021/11/14 03:36:22;;;;;;;1.58;1.30;;;;;;;26.10;32.39;96454.03;5046461;28;20628;-33
2021/11/14 03:39:02;;;;;;;3.60;1.38;;;;;;;26.12;32.42;96458.34;5049122;28;20105;-30
2021/11/14 03:41:30;;;;;;;1.10;1.00;;;;;;;26.10;32.31;96463.69;5048806;28;20036;-31
2021/11/14 03:43:56;;;;;;;1.48;1.10;;;;;;;26.12;32.30;96467.06;5048586;28;20256;-29
2021/11/14 03:46:21;;;;;;;1.50;1.00;;;;;;;26.12;32.42;96467.06;5048098;28;20523;-31
2021/11/14 03:48:48;;;;;;;1.38;1.17;;;;;;;26.11;32.29;96462.75;5048163;28;20043;-31
2021/11/14 03:51:13;;;;;;;1.33;1.17;;;;;;;26.10;32.35;96475.03;5045932;28;20043;-36
2021/11/14 03:53:39;;;;;;;1.88;1.23;;;;;;;26.09;32.33;96462.00;5048694;28;20032;-31
2021/11/14 03:56:04;;;;;;;2.95;1.20;;;;;;;26.10;32.43;96475.03;5065325;28;20081;-30
2021/11/14 03:58:30;;;;;;;1.45;1.30;;;;;;;26.10;32.27;96469.78;5049020;28;20102;-32
2021/11/14 04:00:57;;;;;;;1.67;1.08;;;;;;;26.08;32.32;96471.66;5046857;28;20322;-34
2021/11/14 04:03:23;;;;;;;1.60;1.30;;;;;;;26.09;32.27;96473.34;5045092;28;20100;-32
2021/11/14 04:05:48;;;;;;;1.85;1.10;;;;;;;26.08;32.33;96476.91;5047144;28;20028;-31
2021/11/14 04:08:18;;;;;;;1.92;1.30;;;;;;;26.10;32.35;96474.19;5048452;28;20035;-36
2021/11/14 04:10:45;;;;;;;1.80;1.30;;;;;;;26.07;32.25;96472.59;5047193;28;20360;-34
2021/11/14 04:13:10;;;;;;;3.05;1.30;;;;;;;26.08;32.40;96476.06;5046816;28;20024;-30
2021/11/14 04:15:36;;;;;;;1.35;1.20;;;;;;;26.05;32.35;96466.59;5061475;28;20457;-33
2021/11/14 04:18:01;;;;;;;1.50;1.20;;;;;;;26.07;32.45;96475.22;5045711;28;20029;-34
2021/11/14 04:20:28;;;;;;;1.75;1.20;;;;;;;26.08;32.44;96476.06;5062230;28;20744;-31
2021/11/14 04:22:53;;;;;;;2.15;1.23;;;;;;;26.09;32.35;96477.78;5048424;28;20028;-31
2021/11/14 04:25:19;;;;;;;1.65;1.23;;;;;;;26.09;32.34;96478.59;5062483;28;20073;-30
2021/11/14 04:27:44;;;;;;;1.40;1.08;;;;;;;26.07;32.30;96480.47;5049403;28;20036;-34
2021/11/14 04:30:10;;;;;;;3.20;2.38;;;;;;;26.08;32.40;96489.19;5048138;28;20040;-33
2021/11/14 04:32:35;;;;;;;13.23;3.20;;;;;;;26.06;32.63;96484.06;5043061;28;20036;-30
2021/11/14 04:35:01;;;;;;;3.58;1.95;;;;;;;26.07;32.59;96487.50;5064212;28;20032;-36
2021/11/14 04:37:26;;;;;;;6.25;1.90;;;;;;;26.05;32.56;96490.22;5046782;28;20174;-34
2021/11/14 04:39:52;;;;;;;5.85;1.80;;;;;;;26.03;32.43;96486.84;5046596;28;20060;-30
2021/11/14 04:42:17;;;;;;;1.95;1.60;;;;;;;26.03;32.65;96493.88;5043121;28;20055;-31
2021/11/14 04:44:42;;;;;;;2.47;1.70;;;;;;;26.01;32.63;96498.38;5043033;28;20115;-31
2021/11/14 04:47:08;;;;;;;1.48;1.30;;;;;;;25.99;32.64;96497.63;5047938;28;20021;-32
2021/11/14 04:49:33;;;;;;;2.03;1.38;;;;;;;25.99;32.56;96501.09;5046916;28;20485;-32
2021/11/14 04:51:59;;;;;;;1.70;1.30;;;;;;;26.00;32.62;96500.16;5044881;28;20033;-35
2021/11/14 04:54:24;;;;;;;1.40;1.23;;;;;;;26.01;32.73;96504.47;5044952;28;20032;-33
2021/11/14 04:56:50;;;;;;;1.52;1.13;;;;;;;26.00;32.71;96502.78;5043968;28;20040;-33
2021/11/14 04:59:15;;;;;;;1.88;1.25;;;;;;;26.00;32.49;96510.66;5049980;28;20031;-32
2021/11/14 05:01:41;;;;;;;1.92;1.20;;;;;;;26.01;32.57;96511.50;5046986;28;20688;-32
2021/11/14 05:04:06;;;;;;;1.27;1.10;;;;;;;26.01;32.57;96504.47;5050242;28;20025;-33
2021/11/14 05:06:32;;;;;;;2.95;1.20;;;;;;;26.02;32.61;96503.56;5050854;28;20037;-31
2021/11/14 05:08:58;;;;;;;2.67;1.10;;;;;;;26.01;32.54;96501.84;5052881;28;20035;-31
2021/11/14 05:11:23;;;;;;;1.42;1.10;;;;;;;26.01;32.56;96512.34;5050562;28;20055;-34
2021/11/14 05:13:48;;;;;;;1.40;1.00;;;;;;;26.01;32.63;96517.59;5052578;28;20029;-31
2021/11/14 05:16:14;;;;;;;1.00;1.00;;;;;;;26.02;32.51;96514.06;5050107;28;20033;-31
2021/11/14 05:18:39;;;;;;;1.70;1.33;;;;;;;26.03;32.50;96513.09;5052329;28;20485;-30
2021/11/14 05:21:05;;;;;;;1.58;1.00;;;;;;;26.03;32.47;96521.00;5048165;28;20040;-31
2021/11/14 05:23:31;;;;;;;1.77;1.10;;;;;;;26.02;32.47;96514.06;5050507;28;20042;-32
2021/11/14 05:25:56;;;;;;;2.05;1.33;;;;;;;26.03;32.55;96518.34;5050548;28;20683;-34
2021/11/14 05:28:21;;;;;;;2.80;1.13;;;;;;;26.03;32.58;96520.13;5063827;28;20033;-30
2021/11/14 05:30:47;;;;;;;1.15;1.00;;;;;;;26.04;32.42;96521.81;5049448;28;20036;-30
2021/11/14 05:33:13;;;;;;;1.77;1.30;;;;;;;26.03;32.51;96526.25;5049943;28;20032;-30
2021/11/14 05:35:38;;;;;;;1.63;0.98;;;;;;;26.03;32.53;96523.63;5045274;28;20678;-30
2021/11/14 05:38:04;;;;;;;0.85;0.82;;;;;;;26.03;32.37;96526.25;5064891;28;20056;-33
2021/11/14 05:40:29;;;;;;;1.67;1.00;;;;;;;26.03;32.47;96523.63;5049221;28;20029;-32
2021/11/14 05:42:55;;;;;;;2.15;1.08;;;;;;;26.03;32.55;96528.88;5047863;28;20039;-28
2021/11/14 05:45:20;;;;;;;1.10;0.90;;;;;;;26.03;32.51;96528.88;5050745;28;20341;-33
2021/11/14 05:47:46;;;;;;;1.05;0.93;;;;;;;26.03;32.46;96536.75;5050974;28;20024;-30
2021/11/14 05:50:11;;;;;;;1.73;1.05;;;;;;;26.03;32.55;96543.75;5050510;28;20053;-31
2021/11/14 05:52:37;;;;;;;2.03;0.90;;;;;;;26.03;32.40;96541.13;5050087;28;20048;-32
2021/11/14 05:55:03;;;;;;;1.52;1.00;;;;;;;26.03;32.46;96552.50;5046715;28;20314;-29
2021/11/14 05:57:33;;;;;;;2.65;1.30;;;;;;;26.02;32.44;96549.94;5040573;28;20039;-37
2021/11/14 06:05:13;;;;;;;1.35;1.10;;;;;;;26.03;32.56;96563.00;5049638;28;20090;-29
2021/11/14 06:07:38;;;;;;;2.78;1.30;;;;;;;26.01;32.42;96562.22;5049447;28;20124;-33
2021/11/14 06:10:04;;;;;;;1.00;0.90;;;;;;;26.01;32.46;96554.34;5050448;28;20544;-35
2021/11/14 06:12:30;;;;;;;1.13;0.95;;;;;;;26.02;32.39;96570.97;5050370;28;20056;-32
2021/11/14 06:14:55;;;;;;;2.10;1.20;;;;;;;26.01;32.53;96570.09;5049102;28;20032;-34
2021/11/14 06:17:21;;;;;;;2.15;1.10;;;;;;;26.01;32.51;96564.84;5064873;28;20033;-29
2021/11/14 06:19:47;;;;;;;1.88;1.17;;;;;;;26.01;32.52;96575.34;5050136;28;20036;-33
2021/11/14 06:22:14;;;;;;;0.95;0.90;;;;;;;26.01;32.54;96570.09;5046839;28;20017;-33
2021/11/14 06:24:39;;;;;;;1.55;0.90;;;;;;;26.02;32.53;96576.22;5065718;28;20777;-31
2021/11/14 06:27:05;;;;;;;2.15;1.00;;;;;;;26.01;32.51;96575.34;5050666;28;20037;-30
2021/11/14 06:29:30;;;;;;;1.63;1.13;;;;;;;26.01;32.34;96585.84;5047130;28;20110;-32
2021/11/14 06:31:56;;;;;;;1.27;1.00;;;;;;;26.01;32.36;96577.97;5056920;28;20070;-34
2021/11/14 06:34:21;;;;;;;1.52;1.00;;;;;;;26.02;32.48;96586.72;5050499;28;20062;-30
2021/11/14 06:36:46;;;;;;;1.40;0.98;;;;;;;26.00;32.46;96589.41;5046953;28;20024;-28
2021/11/14 06:39:12;;;;;;;0.85;0.85;;;;;;;26.01;32.49;96592.91;5046793;28;20028;-28
2021/11/14 06:41:37;;;;;;;2.42;0.93;;;;;;;26.00;32.42;96589.41;5047906;28;20040;-30
2021/11/14 06:44:03;;;;;;;1.92;1.02;;;;;;;26.00;32.51;96592.03;5046613;28;20025;-29
2021/11/14 06:46:28;;;;;;;1.10;0.88;;;;;;;26.00;32.58;96592.03;5042605;28;20573;-29
2021/11/14 06:48:53;;;;;;;1.45;1.15;;;;;;;26.01;32.54;96592.91;5050058;28;20036;-29
2021/11/14 06:51:19;;;;;;;7.93;1.10;;;;;;;26.01;32.66;96600.78;5051548;28;20405;-33
2021/11/14 06:53:44;;;;;;;1.15;1.02;;;;;;;26.00;32.46;96594.69;5046874;28;20036;-31
2021/11/14 06:56:09;;;;;;;9.23;1.70;;;;;;;26.01;32.40;96603.41;5047384;28;20073;-30
2021/11/14 06:58:35;;;;;;;1.45;1.25;;;;;;;26.00;32.56;96604.34;5046960;28;20024;-32
2021/11/14 07:01:00;;;;;;;1.92;0.88;;;;;;;26.00;32.46;96602.56;5046229;28;20028;-33
2021/11/14 07:03:26;;;;;;;1.33;1.20;;;;;;;26.00;32.55;96610.44;5049320;28;20029;-30
2021/11/14 07:05:51;;;;;;;1.05;0.95;;;;;;;26.01;32.54;96612.09;5046699;28;20039;-28
2021/11/14 07:08:17;;;;;;;1.30;1.00;;;;;;;26.00;32.54;96610.44;5043677;28;20895;-29
2021/11/14 07:10:42;;;;;;;1.70;1.10;;;;;;;26.01;32.45;96622.63;5045292;28;20496;-31
2021/11/14 07:13:07;;;;;;;3.17;1.08;;;;;;;26.00;32.50;96626.19;5049687;28;20033;-30
2021/11/14 07:15:33;;;;;;;1.83;1.10;;;;;;;26.01;32.65;96617.38;5046041;28;20036;-33
2021/11/14 07:17:58;;;;;;;1.35;1.10;;;;;;;26.02;32.58;96624.34;5063231;28;20505;-32
2021/11/14 07:20:24;;;;;;;1.30;0.88;;;;;;;26.00;32.60;96631.44;5047025;28;20047;-33
2021/11/14 07:22:49;;;;;;;1.50;1.00;;;;;;;26.00;32.53;96626.19;5065848;28;20029;-30
2021/11/14 07:25:17;;;;;;;1.17;0.95;;;;;;;26.01;32.47;96624.41;5059177;28;20028;-31
2021/11/14 07:27:43;;;;;;;1.42;1.00;;;;;;;26.01;32.46;96633.13;5047761;28;20029;-30
2021/11/14 07:30:10;;;;;;;1.23;0.95;;;;;;;26.01;32.65;96633.13;5045931;28;20687;-30
2021/11/14 07:32:35;;;;;;;1.48;0.93;;;;;;;26.02;32.63;96637.47;5049296;28;20020;-32
2021/11/14 07:35:01;;;;;;;1.63;1.10;;;;;;;26.02;32.53;96633.97;5043141;28;20573;-31
2021/11/14 07:37:26;;;;;;;1.80;1.20;;;;;;;26.02;32.66;96642.72;5047853;28;20528;-34
2021/11/14 07:39:51;;;;;;;1.83;1.30;;;;;;;26.02;32.63;96640.09;5042730;28;20032;-32
2021/11/14 07:42:17;;;;;;;2.03;1.38;;;;;;;26.02;32.61;96640.09;5046291;28;20021;-33
2021/11/14 07:44:42;;;;;;;4.70;1.58;;;;;;;26.03;32.51;96641.78;5059976;28;20044;-31
2021/11/14 07:47:08;;;;;;;6.72;1.90;;;;;;;26.03;32.55;96644.41;5044985;28;20024;-32
2021/11/14 07:49:33;;;;;;;6.68;2.70;;;;;;;26.02;32.56;96641.84;5044164;28;20028;-31
2021/11/14 07:51:59;;;;;;;7.65;2.92;;;;;;;26.02;32.52;96644.47;5046838;28;20450;-32
2021/11/14 07:54:24;;;;;;;8.02;3.03;;;;;;;26.02;32.44;96649.72;5048614;28;20032;-34
2021/11/14 07:56:49;;;;;;;4.88;2.50;;;;;;;26.01;32.39;96654.13;5047385;28;20024;-31
2021/11/14 07:59:15;;;;;;;6.60;2.97;;;;;;;26.03;32.66;96661.91;5043262;28;20624;-32
2021/11/14 08:01:40;;;;;;;7.78;3.10;;;;;;;26.03;32.43;96664.53;5030902;28;20056;-30
2021/11/14 08:04:06;;;;;;;8.48;3.42;;;;;;;26.02;32.36;96652.34;5043347;28;20033;-34
2021/11/14 08:06:31;;;;;;;7.38;3.30;;;;;;;26.03;32.46;96657.53;5056851;28;20028;-29
2021/11/14 08:08:57;;;;;;;7.35;3.60;;;;;;;26.04;32.52;96656.59;5043699;28;20025;-32
2021/11/14 08:11:22;;;;;;;5.97;3.50;;;;;;;26.05;32.43;96653.03;5050235;28;20045;-33
2021/11/14 08:13:48;;;;;;;8.15;3.78;;;;;;;26.05;32.53;96649.56;5041377;28;20025;-31
2021/11/14 08:16:13;;;;;;;9.45;3.38;;;;;;;26.06;32.54;96653.88;5041302;28;21893;-33
2021/11/14 08:18:39;;;;;;;7.25;3.28;;;;;;;26.06;32.48;96646.84;5040983;28;20074;-31
2021/11/14 08:21:04;;;;;;;8.55;3.45;;;;;;;26.07;32.51;96648.53;5041509;28;20173;-34
2021/11/14 08:23:29;;;;;;;5.97;2.75;;;;;;;26.08;32.40;96646.75;5042503;28;20040;-33
2021/11/14 08:25:56;;;;;;;7.65;3.45;;;;;;;26.09;32.53;96651.09;5039770;28;20070;-31
2021/11/14 08:28:22;;;;;;;8.02;3.10;;;;;;;26.07;32.38;96652.94;5045482;28;20024;-31
2021/11/14 08:30:48;;;;;;;9.63;3.20;;;;;;;26.08;32.61;96655.47;5041053;28;20032;-31
2021/11/14 08:33:13;;;;;;;8.38;3.42;;;;;;;26.08;32.57;96655.47;5041632;28;22180;-36
2021/11/14 08:35:39;;;;;;;6.80;3.60;;;;;;;26.10;32.46;96660.66;5040927;28;20450;-34
2021/11/14 08:38:05;;;;;;;9.82;3.58;;;;;;;26.07;32.41;96653.78;5044955;28;20106;-33
2021/11/14 08:40:31;;;;;;;8.25;3.88;;;;;;;26.12;32.52;96663.19;5046248;28;20078;-34
2021/11/14 08:42:57;;;;;;;6.82;3.13;;;;;;;26.12;32.59;96671.06;5048345;28;20739;-32
2021/11/14 08:45:26;;;;;;;7.55;3.47;;;;;;;26.10;32.39;96674.59;5045212;28;20025;-31
2021/11/14 08:47:52;;;;;;;7.03;3.05;;;;;;;26.11;32.60;96670.22;5044224;28;20036;-32
2021/11/14 08:50:17;;;;;;;9.80;3.17;;;;;;;26.10;32.51;96669.34;5044571;28;20033;-31
2021/11/14 08:52:46;;;;;;;6.30;2.90;;;;;;;26.12;32.74;96671.06;5058757;28;20081;-29
2021/11/14 08:55:13;;;;;;;6.13;2.78;;;;;;;26.12;32.64;96668.44;5044705;28;20029;-30
2021/11/14 08:57:39;;;;;;;7.07;3.33;;;;;;;26.13;32.57;96671.00;5046415;28;20451;-29
2021/11/14 09:00:05;;;;;;;6.88;2.90;;;;;;;26.14;32.63;96679.69;5045613;28;20028;-35
2021/11/14 09:02:31;;;;;;;6.93;3.25;;;;;;;26.13;32.59;96678.00;5044226;28;20166;-33
2021/11/14 09:04:56;;;;;;;7.68;3.10;;;;;;;26.14;32.71;96684.94;5044691;28;20028;-34
2021/11/14 09:07:21;;;;;;;5.38;2.72;;;;;;;26.14;32.63;96682.31;5044077;28;20125;-29
2021/11/14 09:09:47;;;;;;;4.60;2.67;;;;;;;26.14;32.57;96684.94;5044996;28;20032;-32
2021/11/14 09:12:12;;;;;;;5.78;3.10;;;;;;;26.14;32.69;96685.81;5044811;28;20573;-34
2021/11/14 09:14:38;;;;;;;5.13;2.47;;;;;;;26.15;32.68;96691.88;5051486;28;20036;-32
2021/11/14 09:17:03;;;;;;;6.70;2.92;;;;;;;26.14;32.57;96684.94;5047198;28;20067;-31
2021/11/14 09:19:28;;;;;;;12.07;6.75;;;;;;;26.10;30.58;96687.75;5048593;28;20143;-31
2021/11/14 09:21:54;;;;;;;9.93;8.40;;;;;;;26.01;29.11;96690.88;5045502;28;20516;-31
2021/11/14 09:24:19;;;;;;;9.65;8.65;;;;;;;25.81;28.10;96684.13;5046702;28;20045;-34
2021/11/14 09:26:45;;;;;;;10.63;9.15;;;;;;;25.58;27.78;96694.09;5044618;28;20020;-30
2021/11/14 09:29:12;;;;;;;10.05;7.90;;;;;;;25.35;28.32;96709.25;5043192;28;20058;-32
2021/11/14 09:31:38;;;;;;;9.10;6.47;;;;;;;25.17;29.09;96714.53;5060924;28;20059;-32
2021/11/14 09:34:04;;;;;;;7.20;5.47;;;;;;;25.05;29.64;96713.38;5045430;28;20028;-32
2021/11/14 09:36:34;;;;;;;6.97;4.95;;;;;;;25.00;29.99;96715.41;5045753;28;20097;-33
2021/11/14 09:39:10;;;;;;;7.25;4.40;;;;;;;24.98;30.38;96711.16;5049324;28;20110;-33
2021/11/14 09:41:46;;;;;;;4.25;3.67;;;;;;;24.97;30.52;96710.31;5045276;28;20021;-33
2021/11/14 09:44:16;;;;;;;5.78;3.40;;;;;;;24.98;30.73;96717.25;5042092;28;20553;-33
2021/11/14 09:46:49;;;;;;;6.63;3.33;;;;;;;25.01;30.80;96722.34;5044128;28;20028;-37
2021/11/14 09:49:15;;;;;;;10.98;3.38;;;;;;;25.05;31.05;96726.50;5044333;28;20025;-35
2021/11/14 09:51:42;;;;;;;3.60;2.95;;;;;;;25.09;31.28;96734.22;5043807;28;20433;-31
2021/11/14 09:54:08;;;;;;;10.38;3.17;;;;;;;25.11;31.40;96729.72;5048532;28;20025;-29
2021/11/14 09:56:34;;;;;;;10.60;3.28;;;;;;;25.15;31.15;96733.88;5044815;28;20025;-33
2021/11/14 09:58:59;;;;;;;10.65;3.58;;;;;;;25.17;31.48;96738.13;5041357;28;20344;-32
2021/11/14 10:01:25;;;;;;;9.52;3.88;;;;;;;25.21;31.51;96738.84;5040611;28;20424;-31
2021/11/14 10:03:50;;;;;;;11.48;3.72;;;;;;;25.25;31.63;96736.91;5042862;28;20025;-36
2021/11/14 10:06:20;;;;;;;22.08;4.55;;;;;;;25.27;31.69;96738.50;5045015;28;20040;-37
2021/11/14 10:08:47;;;;;;;53.10;8.55;;;;;;;25.30;31.59;96738.38;5058410;28;20131;-32
2021/11/14 10:11:13;;;;;;;37.25;8.32;;;;;;;25.35;31.76;96740.72;5051148;28;20483;-31
2021/11/14 10:13:39;;;;;;;37.80;7.35;;;;;;;25.37;31.66;96732.78;5050080;28;20032;-38
2021/11/14 10:16:09;;;;;;;28.92;6.75;;;;;;;25.41;31.64;96734.31;5051269;28;20141;-33
2021/11/14 10:18:35;;;;;;;28.63;6.88;;;;;;;25.43;31.73;96733.31;5049243;28;20074;-34
2021/11/14 10:21:02;;;;;;;34.00;6.93;;;;;;;25.45;31.66;96738.47;5051339;28;20032;-38
2021/11/14 10:23:28;;;;;;;21.35;5.30;;;;;;;25.49;31.64;96736.53;5047165;28;20146;-35
2021/11/14 10:25:55;;;;;;;19.48;6.05;;;;;;;25.50;31.78;96743.47;5052774;28;20047;-34
2021/11/14 10:28:21;;;;;;;17.48;5.35;;;;;;;25.53;31.71;96743.31;5050129;28;20029;-32
2021/11/14 10:30:47;;;;;;;19.25;5.32;;;;;;;25.55;31.78;96750.16;5047721;28;20029;-35
2021/11/14 10:33:14;;;;;;;16.77;5.43;;;;;;;25.57;31.79;96744.88;5048079;28;20048;-36
2021/11/14 10:35:41;;;;;;;20.25;5.30;;;;;;;25.57;31.73;96743.13;5049768;28;20028;-32
2021/11/14 10:38:12;;;;;;;16.88;5.22;;;;;;;25.61;31.80;96738.53;5049872;28;20029;-33
2021/11/14 10:41:02;;;;;;;18.75;5.30;;;;;;;25.62;31.82;96737.59;5044894;28;20037;-35
2021/11/14 10:43:28;;;;;;;14.43;4.70;;;;;;;25.64;31.85;96729.66;5044785;28;20036;-37
2021/11/14 10:45:54;;;;;;;16.05;4.40;;;;;;;25.65;31.70;96736.59;5046623;28;20266;-32
2021/11/14 10:48:22;;;;;;;12.68;4.20;;;;;;;25.68;31.89;96733.81;5050117;28;20028;-33
2021/11/14 10:50:49;;;;;;;15.95;4.25;;;;;;;25.69;31.85;96732.88;5049716;28;20029;-34
2021/11/14 10:53:17;;;;;;;13.45;3.72;;;;;;;25.70;31.72;96719.69;5061540;28;20021;-32
2021/11/14 10:55:44;;;;;;;9.27;3.78;;;;;;;25.71;31.77;96725.78;5043865;28;20077;-35
2021/11/14 10:58:10;;;;;;;13.07;4.03;;;;;;;25.73;31.86;96723.91;5051812;28;20032;-34
2021/11/14 11:00:36;;;;;;;13.55;4.15;;;;;;;25.75;31.95;96726.47;5048383;28;20492;-31
2021/11/14 11:03:02;;;;;;;12.73;3.80;;;;;;;25.76;31.90;96728.13;5053639;28;20074;-35
2021/11/14 11:05:28;;;;;;;13.23;3.95;;;;;;;25.72;31.84;96727.47;5050507;28;20025;-32
2021/11/14 11:07:56;;;;;;;13.95;4.60;;;;;;;25.78;31.88;96732.38;5061940;28;20082;-34
2021/11/14 11:10:33;;;;;;;9.32;3.50;;;;;;;25.78;31.80;96727.13;5049256;28;20040;-34
2021/11/14 11:13:32;;;;;;;18.55;4.10;;;;;;;25.79;31.98;96734.09;5050592;28;20033;-33
2021/11/14 11:16:00;;;;;;;12.43;3.85;;;;;;;25.80;32.01;96730.53;5047983;28;20041;-33
2021/11/14 11:18:26;;;;;;;9.52;3.33;;;;;;;25.81;31.88;96726.97;5047657;28;20033;-36
2021/11/14 11:20:53;;;;;;;6.95;3.53;;;;;;;25.83;31.88;96729.50;5047493;28;20028;-33
2021/11/14 11:23:19;;;;;;;9.20;3.72;;;;;;;25.83;31.86;96730.34;5066206;28;20033;-32
2021/11/14 11:25:55;;;;;;;10.70;3.58;;;;;;;25.83;31.78;96727.72;5046098;28;20031;-36
2021/11/14 11:28:22;;;;;;;8.95;3.65;;;;;;;25.85;32.06;96732.06;5048404;28;20108;-36
2021/11/14 11:30:53;;;;;;;10.18;3.30;;;;;;;25.85;31.99;96727.63;5062794;28;20068;-38
2021/11/14 11:33:22;;;;;;;7.03;3.22;;;;;;;25.86;32.05;96729.34;5043743;28;20036;-36